sensor_id;sensor_type;location;lat;lon;timestamp;pressure;altitude;pressure_sealevel;temperature;humidity
47785;BME280;35233;55.686;37.848;2023-09-08T00:01:51;100151.31;;;20.39;51.28
47785;BME280;35233;55.686;37.848;2023-09-08T00:04:17;100166.16;;;20.45;51.26
47785;BME280;35233;55.686;37.848;2023-09-08T00:06:45;100162.91;;;20.40;51.52
47785;BME280;35233;55.686;37.848;2023-09-08T00:09:11;100156.78;;;20.38;50.98
47785;BME280;35233;55.686;37.848;2023-09-08T00:11:36;100156.78;;;20.38;51.31
47785;BME280;35233;55.686;37.848;2023-09-08T00:14:02;100145.44;;;20.32;51.25
47785;BME280;35233;55.686;37.848;2023-09-08T00:16:29;100136.53;;;20.32;51.01
47785;BME280;35233;55.686;37.848;2023-09-08T00:18:56;100143.53;;;20.34;50.92
47785;BME280;35233;55.686;37.848;2023-09-08T00:21:24;100147.94;;;20.35;50.74
47785;BME280;35233;55.686;37.848;2023-09-08T00:23:50;100145.38;;;20.34;51.29
47785;BME280;35233;55.686;37.848;2023-09-08T00:26:16;100137.78;;;20.26;50.74
47785;BME280;35233;55.686;37.848;2023-09-08T00:28:41;100139.91;;;20.35;50.81
47785;BME280;35233;55.686;37.848;2023-09-08T00:31:07;100138.38;;;20.31;50.74
47785;BME280;35233;55.686;37.848;2023-09-08T00:33:32;100141.06;;;20.31;50.34
47785;BME280;35233;55.686;37.848;2023-09-08T00:35:58;100146.41;;;20.31;50.51
47785;BME280;35233;55.686;37.848;2023-09-08T00:38:24;100139.69;;;20.24;50.74
47785;BME280;35233;55.686;37.848;2023-09-08T00:40:49;100140.56;;;20.25;50.67
47785;BME280;35233;55.686;37.848;2023-09-08T00:43:15;100136.72;;;20.29;50.89
47785;BME280;35233;55.686;37.848;2023-09-08T00:45:42;100134.13;;;20.27;50.46
47785;BME280;35233;55.686;37.848;2023-09-08T00:48:09;100134.13;;;20.27;50.68
47785;BME280;35233;55.686;37.848;2023-09-08T00:50:36;100113.34;;;20.17;50.20
47785;BME280;35233;55.686;37.848;2023-09-08T00:53:03;100124.56;;;20.23;50.43
47785;BME280;35233;55.686;37.848;2023-09-08T00:55:30;100131.56;;;20.26;49.73
47785;BME280;35233;55.686;37.848;2023-09-08T00:57:56;100121.09;;;20.21;49.89
47785;BME280;35233;55.686;37.848;2023-09-08T01:00:21;100125.31;;;20.25;50.27
47785;BME280;35233;55.686;37.848;2023-09-08T01:02:47;100125.59;;;20.21;50.04
47785;BME280;35233;55.686;37.848;2023-09-08T01:05:14;100115.72;;;20.21;50.04
47785;BME280;35233;55.686;37.848;2023-09-08T01:07:40;100115.91;;;20.18;49.99
47785;BME280;35233;55.686;37.848;2023-09-08T01:10:06;100119.97;;;20.25;49.63
47785;BME280;35233;55.686;37.848;2023-09-08T01:12:32;100113.16;;;20.20;50.33
47785;BME280;35233;55.686;37.848;2023-09-08T01:15:02;100108.91;;;20.16;49.90
47785;BME280;35233;55.686;37.848;2023-09-08T01:17:27;100113.94;;;20.22;50.05
47785;BME280;35233;55.686;37.848;2023-09-08T01:19:55;100112.09;;;20.22;49.68
47785;BME280;35233;55.686;37.848;2023-09-08T01:27:48;100116.69;;;20.20;49.73
47785;BME280;35233;55.686;37.848;2023-09-08T01:30:15;100110.66;;;20.17;49.95
47785;BME280;35233;55.686;37.848;2023-09-08T01:32:42;100109.69;;;20.18;49.75
47785;BME280;35233;55.686;37.848;2023-09-08T01:35:09;100114.00;;;20.20;49.27
47785;BME280;35233;55.686;37.848;2023-09-08T01:37:39;100107.97;;;20.17;49.55
47785;BME280;35233;55.686;37.848;2023-09-08T01:40:06;100112.38;;;20.18;49.17
47785;BME280;35233;55.686;37.848;2023-09-08T01:42:31;100107.97;;;20.17;49.11
47785;BME280;35233;55.686;37.848;2023-09-08T01:44:57;100105.28;;;20.17;49.42
47785;BME280;35233;55.686;37.848;2023-09-08T01:47:22;100103.66;;;20.14;49.32
47785;BME280;35233;55.686;37.848;2023-09-08T01:49:48;100101.75;;;20.16;49.30
47785;BME280;35233;55.686;37.848;2023-09-08T01:52:13;100102.59;;;20.17;49.73
47785;BME280;35233;55.686;37.848;2023-09-08T01:54:38;100102.69;;;20.15;49.63
47785;BME280;35233;55.686;37.848;2023-09-08T01:57:04;100086.78;;;20.12;49.23
47785;BME280;35233;55.686;37.848;2023-09-08T01:59:30;100090.31;;;20.12;49.54
47785;BME280;35233;55.686;37.848;2023-09-08T02:01:55;100093.69;;;20.16;49.61
47785;BME280;35233;55.686;37.848;2023-09-08T02:04:21;100086.97;;;20.09;49.57
47785;BME280;35233;55.686;37.848;2023-09-08T02:06:46;100096.56;;;20.13;49.52
47785;BME280;35233;55.686;37.848;2023-09-08T02:09:14;100083.16;;;20.13;49.59
47785;BME280;35233;55.686;37.848;2023-09-08T02:11:39;100075.47;;;20.07;49.31
47785;BME280;35233;55.686;37.848;2023-09-08T02:14:05;100094.81;;;20.12;49.44
47785;BME280;35233;55.686;37.848;2023-09-08T02:16:30;100078.16;;;20.07;49.62
47785;BME280;35233;55.686;37.848;2023-09-08T02:18:56;100086.19;;;20.07;49.30
47785;BME280;35233;55.686;37.848;2023-09-08T02:21:21;100093.97;;;20.11;49.15
47785;BME280;35233;55.686;37.848;2023-09-08T02:23:47;100086.97;;;20.09;49.63
47785;BME280;35233;55.686;37.848;2023-09-08T02:26:12;100072.50;;;20.11;49.54
47785;BME280;35233;55.686;37.848;2023-09-08T02:28:38;100069.25;;;20.06;49.51
47785;BME280;35233;55.686;37.848;2023-09-08T02:31:03;100069.91;;;20.10;49.29
47785;BME280;35233;55.686;37.848;2023-09-08T02:33:29;100065.63;;;20.07;49.87
47785;BME280;35233;55.686;37.848;2023-09-08T02:35:55;100058.44;;;20.08;49.69
47785;BME280;35233;55.686;37.848;2023-09-08T02:38:26;100057.56;;;20.07;49.41
47785;BME280;35233;55.686;37.848;2023-09-08T02:40:51;100054.78;;;20.09;49.72
47785;BME280;35233;55.686;37.848;2023-09-08T02:43:17;100054.31;;;20.02;49.51
47785;BME280;35233;55.686;37.848;2023-09-08T02:45:42;100052.28;;;20.06;49.33
47785;BME280;35233;55.686;37.848;2023-09-08T02:48:07;100054.97;;;20.06;49.63
47785;BME280;35233;55.686;37.848;2023-09-08T02:50:33;100041.56;;;20.06;49.21
47785;BME280;35233;55.686;37.848;2023-09-08T02:52:58;100045.28;;;20.03;49.73
47785;BME280;35233;55.686;37.848;2023-09-08T02:55:24;100039.94;;;20.03;49.58
47785;BME280;35233;55.686;37.848;2023-09-08T02:57:49;100038.03;;;20.05;49.21
47785;BME280;35233;55.686;37.848;2023-09-08T03:00:15;100042.53;;;20.05;49.40
47785;BME280;35233;55.686;37.848;2023-09-08T03:02:40;100043.97;;;20.10;49.43
47785;BME280;35233;55.686;37.848;2023-09-08T03:05:06;100045.03;;;20.08;49.07
47785;BME280;35233;55.686;37.848;2023-09-08T03:07:32;100037.72;;;20.10;49.24
47785;BME280;35233;55.686;37.848;2023-09-08T03:09:59;100038.81;;;20.07;48.98
47785;BME280;35233;55.686;37.848;2023-09-08T03:12:24;100044.72;;;20.12;49.00
47785;BME280;35233;55.686;37.848;2023-09-08T03:14:50;100036.59;;;20.14;49.25
47785;BME280;35233;55.686;37.848;2023-09-08T03:17:15;100037.56;;;20.13;49.00
47785;BME280;35233;55.686;37.848;2023-09-08T03:19:45;100039.09;;;20.17;48.78
47785;BME280;35233;55.686;37.848;2023-09-08T03:22:10;100036.59;;;20.14;48.99
47785;BME280;35233;55.686;37.848;2023-09-08T03:24:35;100032.88;;;20.17;49.05
47785;BME280;35233;55.686;37.848;2023-09-08T03:27:01;100026.66;;;20.16;48.90
47785;BME280;35233;55.686;37.848;2023-09-08T03:29:27;100027.31;;;20.20;49.10
47785;BME280;35233;55.686;37.848;2023-09-08T03:31:52;100026.06;;;20.25;48.64
47785;BME280;35233;55.686;37.848;2023-09-08T03:34:17;100025.22;;;20.25;49.07
47785;BME280;35233;55.686;37.848;2023-09-08T03:36:46;100027.97;;;20.23;48.60
47785;BME280;35233;55.686;37.848;2023-09-08T03:39:11;100018.28;;;20.21;48.78
47785;BME280;35233;55.686;37.848;2023-09-08T03:41:37;100015.34;;;20.25;48.73
47785;BME280;35233;55.686;37.848;2023-09-08T03:44:02;100020.31;;;20.31;48.78
47785;BME280;35233;55.686;37.848;2023-09-08T03:46:28;100004.22;;;20.31;48.38
47785;BME280;35233;55.686;37.848;2023-09-08T03:48:53;100005.72;;;20.35;48.41
47785;BME280;35233;55.686;37.848;2023-09-08T03:51:24;100007.47;;;20.37;48.53
47785;BME280;35233;55.686;37.848;2023-09-08T03:53:49;100000.38;;;20.35;48.30
47785;BME280;35233;55.686;37.848;2023-09-08T03:56:15;100001.13;;;20.38;48.47
47785;BME280;35233;55.686;37.848;2023-09-08T03:58:40;99997.41;;;20.40;48.46
47785;BME280;35233;55.686;37.848;2023-09-08T04:01:06;99993.66;;;20.43;48.03
47785;BME280;35233;55.686;37.848;2023-09-08T04:03:31;99999.03;;;20.43;48.30
47785;BME280;35233;55.686;37.848;2023-09-08T04:05:57;100004.28;;;20.44;48.15
47785;BME280;35233;55.686;37.848;2023-09-08T04:08:22;100002.19;;;20.49;47.87
47785;BME280;35233;55.686;37.848;2023-09-08T04:10:48;100005.56;;;20.53;48.01
47785;BME280;35233;55.686;37.848;2023-09-08T04:13:13;99992.06;;;20.54;48.03
47785;BME280;35233;55.686;37.848;2023-09-08T04:15:39;99986.06;;;20.49;47.68
47785;BME280;35233;55.686;37.848;2023-09-08T04:18:04;99983.31;;;20.51;47.80
47785;BME280;35233;55.686;37.848;2023-09-08T04:20:30;99988.78;;;20.64;47.51
47785;BME280;35233;55.686;37.848;2023-09-08T04:22:55;99985.28;;;20.76;47.24
47785;BME280;35233;55.686;37.848;2023-09-08T04:25:21;99982.41;;;20.79;47.20
47785;BME280;35233;55.686;37.848;2023-09-08T04:27:47;99982.41;;;20.79;47.45
47785;BME280;35233;55.686;37.848;2023-09-08T04:30:12;99984.59;;;20.87;48.14
47785;BME280;35233;55.686;37.848;2023-09-08T04:32:38;99979.63;;;20.80;50.92
47785;BME280;35233;55.686;37.848;2023-09-08T04:35:05;99978.38;;;20.86;52.80
47785;BME280;35233;55.686;37.848;2023-09-08T04:37:55;99979.22;;;20.87;53.19
47785;BME280;35233;55.686;37.848;2023-09-08T04:40:20;99985.84;;;20.81;53.00
47785;BME280;35233;55.686;37.848;2023-09-08T04:42:46;99986.06;;;20.78;53.99
47785;BME280;35233;55.686;37.848;2023-09-08T04:45:11;99974.47;;;20.77;54.06
47785;BME280;35233;55.686;37.848;2023-09-08T04:47:39;99974.47;;;20.77;54.04
47785;BME280;35233;55.686;37.848;2023-09-08T04:50:05;99981.34;;;20.82;53.85
47785;BME280;35233;55.686;37.848;2023-09-08T04:52:30;99975.31;;;20.78;53.71
47785;BME280;35233;55.686;37.848;2023-09-08T04:54:56;99966.94;;;20.83;53.97
47785;BME280;35233;55.686;37.848;2023-09-08T04:57:21;99976.97;;;20.93;53.48
47785;BME280;35233;55.686;37.848;2023-09-08T04:59:47;99970.56;;;20.96;54.51
47785;BME280;35233;55.686;37.848;2023-09-08T05:02:12;99967.44;;;21.02;55.24
47785;BME280;35233;55.686;37.848;2023-09-08T05:04:38;99955.00;;;21.01;54.34
47785;BME280;35233;55.686;37.848;2023-09-08T05:07:03;99961.63;;;20.95;54.17
47785;BME280;35233;55.686;37.848;2023-09-08T05:09:29;99946.78;;;20.90;53.70
47785;BME280;35233;55.686;37.848;2023-09-08T05:11:54;99953.00;;;20.90;53.62
47785;BME280;35233;55.686;37.848;2023-09-08T05:14:20;99954.56;;;20.94;53.45
47785;BME280;35233;55.686;37.848;2023-09-08T05:16:45;99937.47;;;20.95;53.61
47785;BME280;35233;55.686;37.848;2023-09-08T05:19:12;99936.50;;;20.96;53.54
47785;BME280;35233;55.686;37.848;2023-09-08T05:21:38;99941.16;;;21.07;53.36
47785;BME280;35233;55.686;37.848;2023-09-08T05:24:05;99935.44;;;21.12;53.00
47785;BME280;35233;55.686;37.848;2023-09-08T05:26:31;99932.88;;;21.10;53.16
47785;BME280;35233;55.686;37.848;2023-09-08T05:28:57;99923.63;;;21.14;53.09
47785;BME280;35233;55.686;37.848;2023-09-08T05:31:22;99922.56;;;21.17;52.40
47785;BME280;35233;55.686;37.848;2023-09-08T05:33:48;99931.41;;;21.19;52.62
47785;BME280;35233;55.686;37.848;2023-09-08T05:36:13;99922.38;;;21.20;52.62
47785;BME280;35233;55.686;37.848;2023-09-08T05:38:39;99921.72;;;21.16;53.38
47785;BME280;35233;55.686;37.848;2023-09-08T05:41:04;99916.56;;;21.26;53.08
47785;BME280;35233;55.686;37.848;2023-09-08T05:43:30;99906.59;;;21.28;52.79
47785;BME280;35233;55.686;37.848;2023-09-08T05:45:55;99923.84;;;21.38;52.57
47785;BME280;35233;55.686;37.848;2023-09-08T05:48:21;99916.47;;;21.28;52.67
47785;BME280;35233;55.686;37.848;2023-09-08T05:50:46;99919.03;;;21.29;52.86
47785;BME280;35233;55.686;37.848;2023-09-08T05:53:12;99917.88;;;21.33;52.39
47785;BME280;35233;55.686;37.848;2023-09-08T05:55:37;99907.03;;;21.35;52.40
47785;BME280;35233;55.686;37.848;2023-09-08T05:58:03;99904.69;;;21.43;51.94
47785;BME280;35233;55.686;37.848;2023-09-08T06:00:29;99910.41;;;21.38;52.35
47785;BME280;35233;55.686;37.848;2023-09-08T06:02:54;99902.75;;;21.32;52.10
47785;BME280;35233;55.686;37.848;2023-09-08T06:05:20;99898.97;;;21.35;51.46
47785;BME280;35233;55.686;37.848;2023-09-08T06:07:45;99895.06;;;21.26;51.99
47785;BME280;35233;55.686;37.848;2023-09-08T06:10:11;99895.75;;;21.30;51.48
47785;BME280;35233;55.686;37.848;2023-09-08T06:12:36;99885.47;;;21.36;51.37
47785;BME280;35233;55.686;37.848;2023-09-08T06:15:02;99888.34;;;21.46;51.24
47785;BME280;35233;55.686;37.848;2023-09-08T06:17:28;99895.78;;;21.55;50.99
47785;BME280;35233;55.686;37.848;2023-09-08T06:19:54;99891.16;;;21.57;50.20
47785;BME280;35233;55.686;37.848;2023-09-08T06:22:19;99884.91;;;21.69;49.95
47785;BME280;35233;55.686;37.848;2023-09-08T06:24:45;99880.09;;;21.62;50.02
47785;BME280;35233;55.686;37.848;2023-09-08T06:27:10;99875.56;;;21.62;50.09
47785;BME280;35233;55.686;37.848;2023-09-08T06:29:37;99873.97;;;21.60;50.31
47785;BME280;35233;55.686;37.848;2023-09-08T06:32:04;99875.56;;;21.62;50.96
47785;BME280;35233;55.686;37.848;2023-09-08T06:34:29;99860.09;;;21.66;50.72
47785;BME280;35233;55.686;37.848;2023-09-08T06:36:55;99859.97;;;21.67;50.38
47785;BME280;35233;55.686;37.848;2023-09-08T06:39:20;99856.00;;;21.73;50.78
47785;BME280;35233;55.686;37.848;2023-09-08T06:41:46;99858.25;;;21.66;50.99
47785;BME280;35233;55.686;37.848;2023-09-08T06:44:11;99846.13;;;21.48;51.54
47785;BME280;35233;55.686;37.848;2023-09-08T06:46:37;99856.88;;;21.48;52.02
47785;BME280;35233;55.686;37.848;2023-09-08T06:49:02;99864.38;;;21.43;51.86
47785;BME280;35233;55.686;37.848;2023-09-08T06:51:28;99839.34;;;21.42;52.75
47785;BME280;35233;55.686;37.848;2023-09-08T06:53:55;99830.84;;;21.48;52.19
47785;BME280;35233;55.686;37.848;2023-09-08T06:56:25;99841.69;;;21.60;52.32
47785;BME280;35233;55.686;37.848;2023-09-08T06:58:51;99831.03;;;21.71;52.16
47785;BME280;35233;55.686;37.848;2023-09-08T07:01:17;99824.47;;;21.75;52.14
47785;BME280;35233;55.686;37.848;2023-09-08T07:03:42;99821.47;;;21.67;52.38
47785;BME280;35233;55.686;37.848;2023-09-08T07:06:08;99813.28;;;21.68;52.03
47785;BME280;35233;55.686;37.848;2023-09-08T07:08:34;99799.31;;;21.63;52.33
47785;BME280;35233;55.686;37.848;2023-09-08T07:10:59;99812.97;;;21.73;51.82
47785;BME280;35233;55.686;37.848;2023-09-08T07:13:25;99833.53;;;21.61;52.37
47785;BME280;35233;55.686;37.848;2023-09-08T07:15:50;99817.94;;;21.54;52.31
47785;BME280;35233;55.686;37.848;2023-09-08T07:18:16;99801.59;;;21.57;52.37
47785;BME280;35233;55.686;37.848;2023-09-08T07:20:46;99802.63;;;21.67;52.05
47785;BME280;35233;55.686;37.848;2023-09-08T07:23:13;99801.69;;;21.68;51.69
47785;BME280;35233;55.686;37.848;2023-09-08T07:25:40;99800.06;;;21.65;51.66
47785;BME280;35233;55.686;37.848;2023-09-08T07:28:05;99803.31;;;21.70;51.28
47785;BME280;35233;55.686;37.848;2023-09-08T07:30:32;99803.44;;;21.93;51.14
47785;BME280;35233;55.686;37.848;2023-09-08T07:32:57;99795.44;;;22.04;51.27
47785;BME280;35233;55.686;37.848;2023-09-08T07:35:23;99800.38;;;22.10;50.96
47785;BME280;35233;55.686;37.848;2023-09-08T07:37:49;99798.66;;;22.09;51.13
47785;BME280;35233;55.686;37.848;2023-09-08T07:40:15;99789.75;;;22.09;51.32
47785;BME280;35233;55.686;37.848;2023-09-08T07:42:40;99789.38;;;22.13;51.09
47785;BME280;35233;55.686;37.848;2023-09-08T07:45:07;99790.56;;;22.22;50.67
47785;BME280;35233;55.686;37.848;2023-09-08T07:47:35;99781.66;;;22.09;51.05
47785;BME280;35233;55.686;37.848;2023-09-08T07:50:21;99795.13;;;22.09;51.14
47785;BME280;35233;55.686;37.848;2023-09-08T07:52:48;99789.09;;;22.18;50.64
47785;BME280;35233;55.686;37.848;2023-09-08T07:55:14;99800.59;;;22.20;50.75
47785;BME280;35233;55.686;37.848;2023-09-08T07:57:44;99783.25;;;22.24;50.61
47785;BME280;35233;55.686;37.848;2023-09-08T08:00:12;99768.19;;;22.22;50.52
47785;BME280;35233;55.686;37.848;2023-09-08T08:02:42;99767.31;;;22.21;50.80
47785;BME280;35233;55.686;37.848;2023-09-08T08:05:09;99767.47;;;22.20;51.01
47785;BME280;35233;55.686;37.848;2023-09-08T08:07:37;99759.25;;;22.21;50.78
47785;BME280;35233;55.686;37.848;2023-09-08T08:10:03;99762.47;;;22.26;50.63
47785;BME280;35233;55.686;37.848;2023-09-08T08:12:29;99750.25;;;22.33;50.41
47785;BME280;35233;55.686;37.848;2023-09-08T08:14:54;99752.59;;;22.38;49.91
47785;BME280;35233;55.686;37.848;2023-09-08T08:17:20;99747.00;;;22.41;50.04
47785;BME280;35233;55.686;37.848;2023-09-08T08:19:45;99734.22;;;22.32;50.07
47785;BME280;35233;55.686;37.848;2023-09-08T08:22:11;99735.66;;;22.25;50.13
47785;BME280;35233;55.686;37.848;2023-09-08T08:24:36;99726.34;;;22.18;50.35
47785;BME280;35233;55.686;37.848;2023-09-08T08:27:02;99729.34;;;22.13;50.35
47785;BME280;35233;55.686;37.848;2023-09-08T08:29:28;99728.94;;;22.06;50.89
47785;BME280;35233;55.686;37.848;2023-09-08T08:31:54;99727.69;;;21.99;50.88
47785;BME280;35233;55.686;37.848;2023-09-08T08:34:20;99725.41;;;22.06;50.35
47785;BME280;35233;55.686;37.848;2023-09-08T08:36:45;99719.63;;;22.23;49.92
47785;BME280;35233;55.686;37.848;2023-09-08T08:39:11;99728.63;;;22.35;50.01
47785;BME280;35233;55.686;37.848;2023-09-08T08:41:36;99718.81;;;22.34;49.56
47785;BME280;35233;55.686;37.848;2023-09-08T08:44:08;99703.88;;;22.30;50.09
47785;BME280;35233;55.686;37.848;2023-09-08T08:46:35;99709.66;;;22.36;49.84
47785;BME280;35233;55.686;37.848;2023-09-08T08:49:03;99702.91;;;22.31;49.73
47785;BME280;35233;55.686;37.848;2023-09-08T08:51:30;99695.06;;;22.28;50.07
47785;BME280;35233;55.686;37.848;2023-09-08T08:53:57;99661.09;;;22.38;49.65
47785;BME280;35233;55.686;37.848;2023-09-08T08:56:23;99671.63;;;22.41;49.95
47785;BME280;35233;55.686;37.848;2023-09-08T08:58:49;99664.41;;;22.42;49.67
47785;BME280;35233;55.686;37.848;2023-09-08T09:01:18;99663.88;;;22.36;49.46
47785;BME280;35233;55.686;37.848;2023-09-08T09:03:49;99657.53;;;22.37;49.32
47785;BME280;35233;55.686;37.848;2023-09-08T09:06:15;99663.31;;;22.44;49.40
47785;BME280;35233;55.686;37.848;2023-09-08T09:08:43;99660.72;;;22.43;49.33
47785;BME280;35233;55.686;37.848;2023-09-08T09:11:09;99671.88;;;22.49;49.42
47785;BME280;35233;55.686;37.848;2023-09-08T09:13:35;99669.31;;;22.48;48.95
47785;BME280;35233;55.686;37.848;2023-09-08T09:16:01;99660.25;;;22.37;49.43
47785;BME280;35233;55.686;37.848;2023-09-08T09:18:31;99665.59;;;22.26;49.96
47785;BME280;35233;55.686;37.848;2023-09-08T09:21:02;99660.53;;;22.22;49.71
47785;BME280;35233;55.686;37.848;2023-09-08T09:23:32;99666.72;;;22.11;49.65
47785;BME280;35233;55.686;37.848;2023-09-08T09:25:59;99661.69;;;22.06;49.84
47785;BME280;35233;55.686;37.848;2023-09-08T09:28:25;99667.06;;;22.06;50.04
47785;BME280;35233;55.686;37.848;2023-09-08T09:30:53;99671.81;;;22.03;50.24
47785;BME280;35233;55.686;37.848;2023-09-08T09:33:22;99649.63;;;21.88;50.54
47785;BME280;35233;55.686;37.848;2023-09-08T09:35:49;99647.41;;;21.82;51.15
47785;BME280;35233;55.686;37.848;2023-09-08T09:38:16;99661.94;;;21.79;51.43
47785;BME280;35233;55.686;37.848;2023-09-08T09:40:45;99656.66;;;21.78;51.37
47785;BME280;35233;55.686;37.848;2023-09-08T09:43:12;99656.91;;;21.75;51.09
47785;BME280;35233;55.686;37.848;2023-09-08T09:45:39;99663.34;;;21.72;51.28
47785;BME280;35233;55.686;37.848;2023-09-08T09:48:06;99635.31;;;21.63;51.32
47785;BME280;35233;55.686;37.848;2023-09-08T09:50:34;99660.03;;;21.68;51.08
47785;BME280;35233;55.686;37.848;2023-09-08T09:53:03;99670.97;;;21.78;51.11
47785;BME280;35233;55.686;37.848;2023-09-08T09:55:28;99666.66;;;21.76;51.39
47785;BME280;35233;55.686;37.848;2023-09-08T09:57:57;99675.25;;;21.81;51.18
47785;BME280;35233;55.686;37.848;2023-09-08T10:00:29;99671.16;;;21.88;51.38
47785;BME280;35233;55.686;37.848;2023-09-08T10:02:55;99664.88;;;21.87;50.71
47785;BME280;35233;55.686;37.848;2023-09-08T10:05:22;99680.81;;;21.90;51.18
47785;BME280;35233;55.686;37.848;2023-09-08T10:07:49;99668.41;;;21.77;51.15
47785;BME280;35233;55.686;37.848;2023-09-08T10:10:16;99680.78;;;21.66;51.66
47785;BME280;35233;55.686;37.848;2023-09-08T10:12:46;99669.53;;;21.61;51.49
47785;BME280;35233;55.686;37.848;2023-09-08T10:15:18;99677.09;;;21.56;51.87
47785;BME280;35233;55.686;37.848;2023-09-08T10:17:45;99678.72;;;21.46;52.23
47785;BME280;35233;55.686;37.848;2023-09-08T10:20:12;99683.22;;;21.45;51.95
47785;BME280;35233;55.686;37.848;2023-09-08T10:22:41;99682.91;;;21.50;51.83
47785;BME280;35233;55.686;37.848;2023-09-08T10:25:12;99683.53;;;21.54;52.12
47785;BME280;35233;55.686;37.848;2023-09-08T10:27:39;99681.53;;;21.44;52.02
47785;BME280;35233;55.686;37.848;2023-09-08T10:30:06;99695.06;;;21.43;52.61
47785;BME280;35233;55.686;37.848;2023-09-08T10:32:33;99672.38;;;21.47;51.82
47785;BME280;35233;55.686;37.848;2023-09-08T10:35:01;99685.09;;;21.69;51.51
47785;BME280;35233;55.686;37.848;2023-09-08T10:37:28;99683.03;;;21.73;51.69
47785;BME280;35233;55.686;37.848;2023-09-08T10:39:55;99677.56;;;21.74;51.34
47785;BME280;35233;55.686;37.848;2023-09-08T10:42:22;99678.25;;;21.89;51.15
47785;BME280;35233;55.686;37.848;2023-09-08T10:44:57;99680.75;;;22.03;51.22
47785;BME280;35233;55.686;37.848;2023-09-08T10:47:24;99676.59;;;22.10;50.97
47785;BME280;35233;55.686;37.848;2023-09-08T10:49:51;99665.13;;;22.08;50.73
47785;BME280;35233;55.686;37.848;2023-09-08T10:52:21;99677.66;;;22.21;50.63
47785;BME280;35233;55.686;37.848;2023-09-08T10:54:48;99673.03;;;22.23;50.42
47785;BME280;35233;55.686;37.848;2023-09-08T10:57:20;99663.00;;;22.25;50.50
47785;BME280;35233;55.686;37.848;2023-09-08T11:05:11;99655.41;;;22.19;50.10
47785;BME280;35233;55.686;37.848;2023-09-08T11:07:39;99672.94;;;21.76;51.48
47785;BME280;35233;55.686;37.848;2023-09-08T11:10:06;99680.72;;;21.55;52.17
47785;BME280;35233;55.686;37.848;2023-09-08T11:12:33;99675.78;;;21.49;52.38
47785;BME280;35233;55.686;37.848;2023-09-08T11:15:01;99678.94;;;21.43;52.41
47785;BME280;35233;55.686;37.848;2023-09-08T11:17:30;99672.47;;;21.45;52.18
47785;BME280;35233;55.686;37.848;2023-09-08T11:19:56;99691.06;;;21.61;52.02
47785;BME280;35233;55.686;37.848;2023-09-08T11:22:23;99687.91;;;21.67;52.29
47785;BME280;35233;55.686;37.848;2023-09-08T11:24:51;99687.16;;;21.65;51.90
47785;BME280;35233;55.686;37.848;2023-09-08T11:27:17;99686.16;;;21.66;52.07
47785;BME280;35233;55.686;37.848;2023-09-08T11:29:44;99693.56;;;21.76;51.39
47785;BME280;35233;55.686;37.848;2023-09-08T11:32:10;99673.31;;;21.83;51.67
47785;BME280;35233;55.686;37.848;2023-09-08T11:34:36;99697.06;;;21.89;52.61
47785;BME280;35233;55.686;37.848;2023-09-08T11:37:16;99694.53;;;21.99;52.50
47785;BME280;35233;55.686;37.848;2023-09-08T11:39:45;99667.25;;;21.92;52.08
47785;BME280;35233;55.686;37.848;2023-09-08T11:42:15;99675.84;;;21.97;52.54
47785;BME280;35233;55.686;37.848;2023-09-08T11:44:41;99680.66;;;22.16;52.40
47785;BME280;35233;55.686;37.848;2023-09-08T11:47:08;99674.66;;;22.25;52.19
47785;BME280;35233;55.686;37.848;2023-09-08T11:49:39;99681.22;;;22.21;51.93
47785;BME280;35233;55.686;37.848;2023-09-08T11:52:06;99675.66;;;22.11;52.62
47785;BME280;35233;55.686;37.848;2023-09-08T11:54:32;99675.69;;;21.99;53.09
47785;BME280;35233;55.686;37.848;2023-09-08T11:57:00;99679.84;;;21.91;53.92
47785;BME280;35233;55.686;37.848;2023-09-08T11:59:27;99662.56;;;21.83;54.46
47785;BME280;35233;55.686;37.848;2023-09-08T12:01:53;99669.66;;;21.84;54.50
47785;BME280;35233;55.686;37.848;2023-09-08T12:04:20;99674.56;;;21.90;54.50
47785;BME280;35233;55.686;37.848;2023-09-08T12:06:49;99662.84;;;21.91;53.84
47785;BME280;35233;55.686;37.848;2023-09-08T12:09:16;99675.25;;;22.05;53.70
47785;BME280;35233;55.686;37.848;2023-09-08T12:11:42;99683.50;;;22.14;53.11
47785;BME280;35233;55.686;37.848;2023-09-08T12:14:11;99681.13;;;22.10;53.48
47785;BME280;35233;55.686;37.848;2023-09-08T12:16:37;99670.47;;;21.97;53.57
47785;BME280;35233;55.686;37.848;2023-09-08T12:19:03;99684.44;;;22.02;53.58
47785;BME280;35233;55.686;37.848;2023-09-08T12:21:29;99679.53;;;22.07;53.81
47785;BME280;35233;55.686;37.848;2023-09-08T12:23:57;99687.84;;;22.04;53.88
47785;BME280;35233;55.686;37.848;2023-09-08T12:26:25;99686.00;;;21.81;53.97
47785;BME280;35233;55.686;37.848;2023-09-08T12:28:50;99678.97;;;21.67;54.27
47785;BME280;35233;55.686;37.848;2023-09-08T12:31:17;99690.31;;;21.59;54.18
47785;BME280;35233;55.686;37.848;2023-09-08T12:33:43;99687.09;;;21.54;54.37
47785;BME280;35233;55.686;37.848;2023-09-08T12:36:17;99684.94;;;21.46;53.81
47785;BME280;35233;55.686;37.848;2023-09-08T12:38:52;99698.28;;;21.48;54.04
47785;BME280;35233;55.686;37.848;2023-09-08T12:41:19;99705.81;;;21.56;53.74
47785;BME280;35233;55.686;37.848;2023-09-08T12:43:45;99706.66;;;21.56;53.50
47785;BME280;35233;55.686;37.848;2023-09-08T12:46:11;99714.13;;;21.64;53.59
47785;BME280;35233;55.686;37.848;2023-09-08T12:48:37;99714.66;;;21.69;53.25
47785;BME280;35233;55.686;37.848;2023-09-08T12:51:03;99711.88;;;21.70;53.39
47785;BME280;35233;55.686;37.848;2023-09-08T12:53:34;99711.88;;;21.70;53.20
47785;BME280;35233;55.686;37.848;2023-09-08T12:56:03;99708.97;;;21.74;52.58